sensor_id;sensor_type;location;lat;lon;timestamp;P1;durP1;ratioP1;P2;durP2;ratioP2
82806;SDS011;72563;44.816;20.484;2023-12-20T00:01:46;93.22;;;50.35;;
82806;SDS011;72563;44.816;20.484;2023-12-20T00:04:12;89.57;;;51.95;;
82806;SDS011;72563;44.816;20.484;2023-12-20T00:06:37;84.68;;;49.67;;
82806;SDS011;72563;44.816;20.484;2023-12-20T00:09:03;87.70;;;47.72;;
82806;SDS011;72563;44.816;20.484;2023-12-20T00:11:28;87.57;;;46.15;;
82806;SDS011;72563;44.816;20.484;2023-12-20T00:13:54;86.40;;;48.05;;
82806;SDS011;72563;44.816;20.484;2023-12-20T00:16:19;85.95;;;47.53;;
82806;SDS011;72563;44.816;20.484;2023-12-20T00:18:46;81.78;;;46.63;;
82806;SDS011;72563;44.816;20.484;2023-12-20T00:21:11;82.15;;;44.40;;
82806;SDS011;72563;44.816;20.484;2023-12-20T00:23:37;75.22;;;42.85;;
82806;SDS011;72563;44.816;20.484;2023-12-20T00:26:02;69.85;;;40.28;;
82806;SDS011;72563;44.816;20.484;2023-12-20T00:28:28;71.38;;;40.05;;
82806;SDS011;72563;44.816;20.484;2023-12-20T00:30:53;69.00;;;40.47;;
82806;SDS011;72563;44.816;20.484;2023-12-20T00:33:19;65.55;;;39.10;;
82806;SDS011;72563;44.816;20.484;2023-12-20T00:35:44;63.20;;;35.65;;
82806;SDS011;72563;44.816;20.484;2023-12-20T00:38:10;62.55;;;36.42;;
82806;SDS011;72563;44.816;20.484;2023-12-20T00:40:36;66.63;;;36.10;;
82806;SDS011;72563;44.816;20.484;2023-12-20T00:43:02;61.10;;;37.15;;
82806;SDS011;72563;44.816;20.484;2023-12-20T00:45:28;57.55;;;35.83;;
82806;SDS011;72563;44.816;20.484;2023-12-20T00:47:54;66.80;;;39.28;;
82806;SDS011;72563;44.816;20.484;2023-12-20T00:50:19;67.88;;;38.35;;
82806;SDS011;72563;44.816;20.484;2023-12-20T00:52:47;62.30;;;38.42;;
82806;SDS011;72563;44.816;20.484;2023-12-20T00:55:13;66.93;;;39.35;;
82806;SDS011;72563;44.816;20.484;2023-12-20T00:57:39;64.38;;;39.22;;
82806;SDS011;72563;44.816;20.484;2023-12-20T01:00:05;67.43;;;38.75;;
82806;SDS011;72563;44.816;20.484;2023-12-20T01:02:31;67.38;;;38.55;;
82806;SDS011;72563;44.816;20.484;2023-12-20T01:04:56;66.20;;;38.65;;
82806;SDS011;72563;44.816;20.484;2023-12-20T01:07:22;62.88;;;38.80;;
82806;SDS011;72563;44.816;20.484;2023-12-20T01:09:47;64.07;;;38.65;;
82806;SDS011;72563;44.816;20.484;2023-12-20T01:12:13;65.97;;;37.63;;
82806;SDS011;72563;44.816;20.484;2023-12-20T01:14:38;70.47;;;39.10;;
82806;SDS011;72563;44.816;20.484;2023-12-20T01:17:04;66.53;;;39.88;;
82806;SDS011;72563;44.816;20.484;2023-12-20T01:19:30;65.40;;;39.13;;
82806;SDS011;72563;44.816;20.484;2023-12-20T01:21:55;62.55;;;36.88;;
82806;SDS011;72563;44.816;20.484;2023-12-20T01:24:21;65.05;;;37.67;;
82806;SDS011;72563;44.816;20.484;2023-12-20T01:26:47;65.93;;;35.25;;
82806;SDS011;72563;44.816;20.484;2023-12-20T01:29:12;61.38;;;37.45;;
82806;SDS011;72563;44.816;20.484;2023-12-20T01:31:39;70.35;;;41.22;;
82806;SDS011;72563;44.816;20.484;2023-12-20T01:34:05;67.22;;;38.03;;
82806;SDS011;72563;44.816;20.484;2023-12-20T01:36:31;65.75;;;37.97;;
82806;SDS011;72563;44.816;20.484;2023-12-20T01:38:57;62.33;;;36.03;;
82806;SDS011;72563;44.816;20.484;2023-12-20T01:41:23;64.13;;;37.65;;
82806;SDS011;72563;44.816;20.484;2023-12-20T01:43:48;65.95;;;38.08;;
82806;SDS011;72563;44.816;20.484;2023-12-20T01:46:14;64.07;;;36.22;;
82806;SDS011;72563;44.816;20.484;2023-12-20T01:48:40;64.97;;;37.28;;
82806;SDS011;72563;44.816;20.484;2023-12-20T01:51:06;61.70;;;37.00;;
82806;SDS011;72563;44.816;20.484;2023-12-20T01:53:32;68.25;;;38.35;;
82806;SDS011;72563;44.816;20.484;2023-12-20T01:55:59;63.42;;;37.42;;
82806;SDS011;72563;44.816;20.484;2023-12-20T01:58:24;65.43;;;37.42;;
82806;SDS011;72563;44.816;20.484;2023-12-20T02:00:51;60.30;;;35.95;;
82806;SDS011;72563;44.816;20.484;2023-12-20T02:03:17;58.63;;;37.28;;
82806;SDS011;72563;44.816;20.484;2023-12-20T02:05:43;62.22;;;39.45;;
82806;SDS011;72563;44.816;20.484;2023-12-20T02:08:10;65.32;;;38.53;;
82806;SDS011;72563;44.816;20.484;2023-12-20T02:10:35;62.83;;;37.60;;
82806;SDS011;72563;44.816;20.484;2023-12-20T02:13:01;57.95;;;36.85;;
82806;SDS011;72563;44.816;20.484;2023-12-20T02:15:26;64.65;;;36.53;;
82806;SDS011;72563;44.816;20.484;2023-12-20T02:17:52;57.45;;;35.40;;
82806;SDS011;72563;44.816;20.484;2023-12-20T02:20:18;61.67;;;35.30;;
82806;SDS011;72563;44.816;20.484;2023-12-20T02:22:44;60.28;;;34.75;;
82806;SDS011;72563;44.816;20.484;2023-12-20T02:25:09;64.45;;;36.90;;
82806;SDS011;72563;44.816;20.484;2023-12-20T02:27:35;61.63;;;36.20;;
82806;SDS011;72563;44.816;20.484;2023-12-20T02:30:00;59.35;;;36.22;;
82806;SDS011;72563;44.816;20.484;2023-12-20T02:32:26;60.97;;;36.28;;
82806;SDS011;72563;44.816;20.484;2023-12-20T02:34:53;64.13;;;37.42;;
82806;SDS011;72563;44.816;20.484;2023-12-20T02:37:18;62.55;;;36.75;;
82806;SDS011;72563;44.816;20.484;2023-12-20T02:39:44;63.67;;;36.10;;
82806;SDS011;72563;44.816;20.484;2023-12-20T02:42:10;60.28;;;37.22;;
82806;SDS011;72563;44.816;20.484;2023-12-20T02:44:35;59.60;;;35.95;;
82806;SDS011;72563;44.816;20.484;2023-12-20T02:47:01;60.60;;;33.15;;
82806;SDS011;72563;44.816;20.484;2023-12-20T02:49:27;63.25;;;36.35;;
82806;SDS011;72563;44.816;20.484;2023-12-20T02:51:53;63.30;;;37.00;;
82806;SDS011;72563;44.816;20.484;2023-12-20T02:54:18;66.53;;;36.60;;
82806;SDS011;72563;44.816;20.484;2023-12-20T02:56:44;59.15;;;37.85;;
82806;SDS011;72563;44.816;20.484;2023-12-20T02:59:09;57.08;;;34.42;;
82806;SDS011;72563;44.816;20.484;2023-12-20T03:01:35;63.05;;;36.22;;
82806;SDS011;72563;44.816;20.484;2023-12-20T03:04:06;58.40;;;35.13;;
82806;SDS011;72563;44.816;20.484;2023-12-20T03:06:31;58.15;;;31.52;;
82806;SDS011;72563;44.816;20.484;2023-12-20T03:08:57;58.65;;;35.20;;
82806;SDS011;72563;44.816;20.484;2023-12-20T03:11:26;59.03;;;35.35;;
82806;SDS011;72563;44.816;20.484;2023-12-20T03:13:52;61.53;;;34.75;;
82806;SDS011;72563;44.816;20.484;2023-12-20T03:16:17;62.75;;;36.75;;
82806;SDS011;72563;44.816;20.484;2023-12-20T03:18:43;59.30;;;35.20;;
82806;SDS011;72563;44.816;20.484;2023-12-20T03:21:08;64.70;;;37.45;;
82806;SDS011;72563;44.816;20.484;2023-12-20T03:23:34;61.85;;;36.20;;
82806;SDS011;72563;44.816;20.484;2023-12-20T03:26:00;60.53;;;37.22;;
82806;SDS011;72563;44.816;20.484;2023-12-20T03:28:29;59.75;;;35.50;;
82806;SDS011;72563;44.816;20.484;2023-12-20T03:30:54;60.85;;;36.22;;
82806;SDS011;72563;44.816;20.484;2023-12-20T03:33:20;59.15;;;36.38;;
82806;SDS011;72563;44.816;20.484;2023-12-20T03:35:45;62.75;;;32.65;;
82806;SDS011;72563;44.816;20.484;2023-12-20T03:38:11;60.17;;;35.25;;
82806;SDS011;72563;44.816;20.484;2023-12-20T03:40:37;64.13;;;36.13;;
82806;SDS011;72563;44.816;20.484;2023-12-20T03:43:03;64.30;;;37.70;;
82806;SDS011;72563;44.816;20.484;2023-12-20T03:45:28;67.85;;;36.90;;
82806;SDS011;72563;44.816;20.484;2023-12-20T03:47:54;61.92;;;36.88;;
82806;SDS011;72563;44.816;20.484;2023-12-20T03:50:24;61.15;;;36.95;;
82806;SDS011;72563;44.816;20.484;2023-12-20T03:52:50;60.53;;;37.15;;
82806;SDS011;72563;44.816;20.484;2023-12-20T03:55:16;54.58;;;31.58;;
82806;SDS011;72563;44.816;20.484;2023-12-20T03:57:42;61.47;;;36.40;;
82806;SDS011;72563;44.816;20.484;2023-12-20T04:00:08;60.60;;;35.63;;
82806;SDS011;72563;44.816;20.484;2023-12-20T04:02:39;62.47;;;33.80;;
82806;SDS011;72563;44.816;20.484;2023-12-20T04:05:06;66.40;;;37.33;;
82806;SDS011;72563;44.816;20.484;2023-12-20T04:07:32;64.43;;;37.70;;
82806;SDS011;72563;44.816;20.484;2023-12-20T04:09:59;63.50;;;38.58;;
82806;SDS011;72563;44.816;20.484;2023-12-20T04:12:25;66.40;;;38.40;;
82806;SDS011;72563;44.816;20.484;2023-12-20T04:14:51;64.30;;;37.03;;
82806;SDS011;72563;44.816;20.484;2023-12-20T04:17:17;65.13;;;38.42;;
82806;SDS011;72563;44.816;20.484;2023-12-20T04:19:43;63.50;;;37.45;;
82806;SDS011;72563;44.816;20.484;2023-12-20T04:22:08;64.15;;;38.30;;
82806;SDS011;72563;44.816;20.484;2023-12-20T04:24:34;61.53;;;36.83;;
82806;SDS011;72563;44.816;20.484;2023-12-20T04:26:59;63.13;;;35.60;;
82806;SDS011;72563;44.816;20.484;2023-12-20T04:29:25;61.60;;;37.28;;
82806;SDS011;72563;44.816;20.484;2023-12-20T04:31:51;62.08;;;36.85;;
82806;SDS011;72563;44.816;20.484;2023-12-20T04:34:17;70.10;;;37.40;;
82806;SDS011;72563;44.816;20.484;2023-12-20T04:36:43;62.20;;;36.28;;
82806;SDS011;72563;44.816;20.484;2023-12-20T04:39:09;66.80;;;37.13;;
82806;SDS011;72563;44.816;20.484;2023-12-20T04:41:35;67.38;;;39.35;;
82806;SDS011;72563;44.816;20.484;2023-12-20T04:44:01;66.93;;;38.53;;
82806;SDS011;72563;44.816;20.484;2023-12-20T04:46:27;67.93;;;39.22;;
82806;SDS011;72563;44.816;20.484;2023-12-20T04:48:52;68.97;;;39.20;;
82806;SDS011;72563;44.816;20.484;2023-12-20T04:51:18;69.20;;;38.90;;
82806;SDS011;72563;44.816;20.484;2023-12-20T04:53:43;73.05;;;39.17;;
82806;SDS011;72563;44.816;20.484;2023-12-20T04:56:09;70.30;;;37.55;;
82806;SDS011;72563;44.816;20.484;2023-12-20T04:58:35;69.70;;;38.15;;
82806;SDS011;72563;44.816;20.484;2023-12-20T05:01:00;69.63;;;38.53;;
82806;SDS011;72563;44.816;20.484;2023-12-20T05:03:26;67.60;;;38.13;;
82806;SDS011;72563;44.816;20.484;2023-12-20T05:05:51;67.45;;;37.42;;
82806;SDS011;72563;44.816;20.484;2023-12-20T05:08:17;65.80;;;38.63;;
82806;SDS011;72563;44.816;20.484;2023-12-20T05:10:43;68.18;;;39.30;;
82806;SDS011;72563;44.816;20.484;2023-12-20T05:13:08;61.70;;;38.17;;
82806;SDS011;72563;44.816;20.484;2023-12-20T05:15:34;67.32;;;37.50;;
82806;SDS011;72563;44.816;20.484;2023-12-20T05:18:00;69.30;;;39.45;;
82806;SDS011;72563;44.816;20.484;2023-12-20T05:20:25;69.20;;;37.70;;
82806;SDS011;72563;44.816;20.484;2023-12-20T05:22:51;69.15;;;38.65;;
82806;SDS011;72563;44.816;20.484;2023-12-20T05:25:16;65.55;;;36.97;;
82806;SDS011;72563;44.816;20.484;2023-12-20T05:27:42;69.63;;;40.25;;
82806;SDS011;72563;44.816;20.484;2023-12-20T05:30:07;65.72;;;36.85;;
82806;SDS011;72563;44.816;20.484;2023-12-20T05:32:33;72.82;;;39.85;;
82806;SDS011;72563;44.816;20.484;2023-12-20T05:34:58;75.45;;;40.22;;
82806;SDS011;72563;44.816;20.484;2023-12-20T05:37:24;71.45;;;39.95;;
82806;SDS011;72563;44.816;20.484;2023-12-20T05:39:49;64.20;;;38.22;;
82806;SDS011;72563;44.816;20.484;2023-12-20T05:42:15;70.90;;;39.00;;
82806;SDS011;72563;44.816;20.484;2023-12-20T05:44:40;64.38;;;40.35;;
82806;SDS011;72563;44.816;20.484;2023-12-20T05:47:06;66.63;;;39.20;;
82806;SDS011;72563;44.816;20.484;2023-12-20T05:49:31;69.15;;;40.08;;
82806;SDS011;72563;44.816;20.484;2023-12-20T05:51:57;67.40;;;36.15;;
82806;SDS011;72563;44.816;20.484;2023-12-20T05:54:23;69.50;;;40.95;;
82806;SDS011;72563;44.816;20.484;2023-12-20T05:56:48;67.70;;;39.55;;
82806;SDS011;72563;44.816;20.484;2023-12-20T05:59:14;61.70;;;36.95;;
82806;SDS011;72563;44.816;20.484;2023-12-20T06:01:39;70.45;;;38.58;;
82806;SDS011;72563;44.816;20.484;2023-12-20T06:04:05;69.07;;;37.35;;
82806;SDS011;72563;44.816;20.484;2023-12-20T06:06:30;68.15;;;38.70;;
82806;SDS011;72563;44.816;20.484;2023-12-20T06:08:56;70.90;;;37.88;;
82806;SDS011;72563;44.816;20.484;2023-12-20T06:11:21;63.45;;;37.13;;
82806;SDS011;72563;44.816;20.484;2023-12-20T06:13:47;61.10;;;36.67;;
82806;SDS011;72563;44.816;20.484;2023-12-20T06:16:14;67.25;;;38.92;;
82806;SDS011;72563;44.816;20.484;2023-12-20T06:18:40;64.85;;;38.53;;
82806;SDS011;72563;44.816;20.484;2023-12-20T06:21:05;61.75;;;35.90;;
82806;SDS011;72563;44.816;20.484;2023-12-20T06:23:33;64.15;;;37.55;;
82806;SDS011;72563;44.816;20.484;2023-12-20T06:25:58;65.25;;;38.10;;
82806;SDS011;72563;44.816;20.484;2023-12-20T06:28:24;65.25;;;33.85;;
82806;SDS011;72563;44.816;20.484;2023-12-20T06:30:49;64.30;;;37.85;;
82806;SDS011;72563;44.816;20.484;2023-12-20T06:33:17;62.83;;;36.78;;
82806;SDS011;72563;44.816;20.484;2023-12-20T06:35:43;67.57;;;38.90;;
82806;SDS011;72563;44.816;20.484;2023-12-20T06:38:09;74.40;;;44.47;;
82806;SDS011;72563;44.816;20.484;2023-12-20T06:40:34;74.88;;;45.33;;
82806;SDS011;72563;44.816;20.484;2023-12-20T06:43:00;72.20;;;44.55;;
82806;SDS011;72563;44.816;20.484;2023-12-20T06:45:25;80.20;;;44.38;;
82806;SDS011;72563;44.816;20.484;2023-12-20T06:47:51;76.55;;;45.15;;
82806;SDS011;72563;44.816;20.484;2023-12-20T06:50:17;80.00;;;46.65;;
82806;SDS011;72563;44.816;20.484;2023-12-20T06:52:42;80.45;;;48.50;;
82806;SDS011;72563;44.816;20.484;2023-12-20T06:55:08;76.50;;;46.08;;
82806;SDS011;72563;44.816;20.484;2023-12-20T06:57:33;75.10;;;47.40;;
82806;SDS011;72563;44.816;20.484;2023-12-20T07:00:00;71.80;;;46.83;;
82806;SDS011;72563;44.816;20.484;2023-12-20T07:02:25;75.85;;;47.67;;
82806;SDS011;72563;44.816;20.484;2023-12-20T07:04:54;73.97;;;44.55;;
82806;SDS011;72563;44.816;20.484;2023-12-20T07:07:19;74.57;;;47.60;;
82806;SDS011;72563;44.816;20.484;2023-12-20T07:09:45;77.78;;;47.10;;
82806;SDS011;72563;44.816;20.484;2023-12-20T07:12:10;77.57;;;47.22;;
82806;SDS011;72563;44.816;20.484;2023-12-20T07:14:36;75.25;;;45.33;;
82806;SDS011;72563;44.816;20.484;2023-12-20T07:17:01;76.93;;;46.10;;
82806;SDS011;72563;44.816;20.484;2023-12-20T07:19:28;79.78;;;46.53;;
82806;SDS011;72563;44.816;20.484;2023-12-20T07:21:53;81.95;;;48.83;;
82806;SDS011;72563;44.816;20.484;2023-12-20T07:24:19;91.35;;;51.03;;
82806;SDS011;72563;44.816;20.484;2023-12-20T07:26:45;85.05;;;50.95;;
82806;SDS011;72563;44.816;20.484;2023-12-20T07:29:10;88.53;;;52.45;;
82806;SDS011;72563;44.816;20.484;2023-12-20T07:31:36;85.50;;;53.22;;
82806;SDS011;72563;44.816;20.484;2023-12-20T07:34:01;91.00;;;53.58;;
82806;SDS011;72563;44.816;20.484;2023-12-20T07:36:27;90.80;;;52.83;;
82806;SDS011;72563;44.816;20.484;2023-12-20T07:38:52;89.82;;;51.30;;
82806;SDS011;72563;44.816;20.484;2023-12-20T07:41:18;85.38;;;49.83;;
82806;SDS011;72563;44.816;20.484;2023-12-20T07:43:46;99.68;;;55.17;;
82806;SDS011;72563;44.816;20.484;2023-12-20T07:46:11;96.70;;;54.95;;
82806;SDS011;72563;44.816;20.484;2023-12-20T07:48:37;86.78;;;51.47;;
82806;SDS011;72563;44.816;20.484;2023-12-20T07:51:06;86.18;;;49.75;;
82806;SDS011;72563;44.816;20.484;2023-12-20T07:53:33;93.53;;;51.33;;
82806;SDS011;72563;44.816;20.484;2023-12-20T07:56:00;81.00;;;48.25;;
82806;SDS011;72563;44.816;20.484;2023-12-20T07:58:26;75.72;;;45.65;;
82806;SDS011;72563;44.816;20.484;2023-12-20T08:00:51;81.85;;;48.13;;
82806;SDS011;72563;44.816;20.484;2023-12-20T08:03:17;83.90;;;48.13;;
82806;SDS011;72563;44.816;20.484;2023-12-20T08:05:42;82.15;;;47.72;;
82806;SDS011;72563;44.816;20.484;2023-12-20T08:08:08;78.40;;;48.08;;
82806;SDS011;72563;44.816;20.484;2023-12-20T08:10:33;74.95;;;43.45;;
82806;SDS011;72563;44.816;20.484;2023-12-20T08:12:59;72.30;;;43.75;;
82806;SDS011;72563;44.816;20.484;2023-12-20T08:15:24;71.43;;;43.67;;
82806;SDS011;72563;44.816;20.484;2023-12-20T08:17:50;73.85;;;44.85;;
82806;SDS011;72563;44.816;20.484;2023-12-20T08:20:18;76.43;;;45.17;;
82806;SDS011;72563;44.816;20.484;2023-12-20T08:22:44;66.78;;;44.65;;
82806;SDS011;72563;44.816;20.484;2023-12-20T08:25:09;76.03;;;44.88;;
82806;SDS011;72563;44.816;20.484;2023-12-20T08:27:41;70.35;;;42.00;;
82806;SDS011;72563;44.816;20.484;2023-12-20T08:30:07;68.68;;;43.45;;
82806;SDS011;72563;44.816;20.484;2023-12-20T08:32:34;65.82;;;38.28;;
82806;SDS011;72563;44.816;20.484;2023-12-20T08:35:00;68.45;;;40.00;;
82806;SDS011;72563;44.816;20.484;2023-12-20T08:37:25;66.78;;;41.05;;
82806;SDS011;72563;44.816;20.484;2023-12-20T08:39:51;59.40;;;39.95;;
82806;SDS011;72563;44.816;20.484;2023-12-20T08:42:16;70.60;;;43.53;;
82806;SDS011;72563;44.816;20.484;2023-12-20T08:44:42;71.20;;;42.28;;
82806;SDS011;72563;44.816;20.484;2023-12-20T08:47:07;71.75;;;43.10;;
82806;SDS011;72563;44.816;20.484;2023-12-20T08:49:33;67.07;;;41.72;;
82806;SDS011;72563;44.816;20.484;2023-12-20T08:51:58;73.05;;;43.65;;
82806;SDS011;72563;44.816;20.484;2023-12-20T08:54:24;72.72;;;43.63;;
82806;SDS011;72563;44.816;20.484;2023-12-20T08:56:49;74.50;;;47.53;;
82806;SDS011;72563;44.816;20.484;2023-12-20T08:59:15;74.80;;;42.45;;
82806;SDS011;72563;44.816;20.484;2023-12-20T09:01:40;74.05;;;45.25;;
82806;SDS011;72563;44.816;20.484;2023-12-20T09:04:06;74.43;;;44.22;;
82806;SDS011;72563;44.816;20.484;2023-12-20T09:06:31;72.00;;;48.47;;
82806;SDS011;72563;44.816;20.484;2023-12-20T09:08:57;74.70;;;47.30;;
82806;SDS011;72563;44.816;20.484;2023-12-20T09:11:22;82.40;;;49.42;;
82806;SDS011;72563;44.816;20.484;2023-12-20T09:13:48;76.55;;;47.15;;
82806;SDS011;72563;44.816;20.484;2023-12-20T09:16:13;80.38;;;47.83;;
82806;SDS011;72563;44.816;20.484;2023-12-20T09:18:41;72.53;;;44.70;;
82806;SDS011;72563;44.816;20.484;2023-12-20T09:21:07;61.75;;;35.90;;
82806;SDS011;72563;44.816;20.484;2023-12-20T09:23:32;59.97;;;31.13;;
82806;SDS011;72563;44.816;20.484;2023-12-20T09:25:58;55.60;;;29.10;;
82806;SDS011;72563;44.816;20.484;2023-12-20T09:28:24;59.90;;;30.83;;
82806;SDS011;72563;44.816;20.484;2023-12-20T09:30:49;50.20;;;30.95;;
82806;SDS011;72563;44.816;20.484;2023-12-20T09:33:15;50.08;;;30.48;;
82806;SDS011;72563;44.816;20.484;2023-12-20T09:35:41;53.05;;;30.67;;
82806;SDS011;72563;44.816;20.484;2023-12-20T09:38:07;51.72;;;30.05;;
82806;SDS011;72563;44.816;20.484;2023-12-20T09:40:33;51.92;;;32.08;;
82806;SDS011;72563;44.816;20.484;2023-12-20T09:45:32;51.55;;;30.48;;
82806;SDS011;72563;44.816;20.484;2023-12-20T09:47:58;49.53;;;29.27;;
82806;SDS011;72563;44.816;20.484;2023-12-20T09:50:24;55.83;;;32.70;;
82806;SDS011;72563;44.816;20.484;2023-12-20T09:52:51;54.45;;;31.27;;
82806;SDS011;72563;44.816;20.484;2023-12-20T09:55:19;54.60;;;31.58;;
82806;SDS011;72563;44.816;20.484;2023-12-20T09:57:45;57.28;;;31.80;;
82806;SDS011;72563;44.816;20.484;2023-12-20T10:00:12;52.50;;;30.48;;
82806;SDS011;72563;44.816;20.484;2023-12-20T10:02:39;52.65;;;32.88;;
82806;SDS011;72563;44.816;20.484;2023-12-20T10:05:10;51.22;;;31.38;;
82806;SDS011;72563;44.816;20.484;2023-12-20T10:07:41;56.75;;;32.78;;
82806;SDS011;72563;44.816;20.484;2023-12-20T10:10:07;51.60;;;32.72;;
82806;SDS011;72563;44.816;20.484;2023-12-20T10:12:34;49.42;;;30.00;;
82806;SDS011;72563;44.816;20.484;2023-12-20T10:14:59;51.03;;;31.33;;
82806;SDS011;72563;44.816;20.484;2023-12-20T10:17:25;54.75;;;31.30;;
82806;SDS011;72563;44.816;20.484;2023-12-20T10:19:54;48.20;;;29.98;;
82806;SDS011;72563;44.816;20.484;2023-12-20T10:22:21;54.33;;;32.03;;
82806;SDS011;72563;44.816;20.484;2023-12-20T10:24:46;56.10;;;32.63;;
82806;SDS011;72563;44.816;20.484;2023-12-20T10:27:12;56.10;;;35.67;;
82806;SDS011;72563;44.816;20.484;2023-12-20T10:29:38;61.67;;;35.70;;
82806;SDS011;72563;44.816;20.484;2023-12-20T10:32:25;60.25;;;36.22;;
82806;SDS011;72563;44.816;20.484;2023-12-20T10:34:53;64.50;;;37.58;;
82806;SDS011;72563;44.816;20.484;2023-12-20T10:37:19;62.28;;;37.95;;
82806;SDS011;72563;44.816;20.484;2023-12-20T10:39:51;69.70;;;38.42;;
82806;SDS011;72563;44.816;20.484;2023-12-20T10:42:21;67.95;;;38.95;;
82806;SDS011;72563;44.816;20.484;2023-12-20T10:44:48;67.82;;;40.45;;
82806;SDS011;72563;44.816;20.484;2023-12-20T10:47:15;68.20;;;40.90;;
82806;SDS011;72563;44.816;20.484;2023-12-20T10:49:42;68.57;;;40.45;;
82806;SDS011;72563;44.816;20.484;2023-12-20T10:52:09;66.13;;;36.22;;
82806;SDS011;72563;44.816;20.484;2023-12-20T10:54:37;62.58;;;40.10;;
82806;SDS011;72563;44.816;20.484;2023-12-20T10:57:06;58.28;;;37.92;;
82806;SDS011;72563;44.816;20.484;2023-12-20T10:59:41;62.75;;;37.78;;
82806;SDS011;72563;44.816;20.484;2023-12-20T11:02:08;62.05;;;37.78;;
82806;SDS011;72563;44.816;20.484;2023-12-20T11:07:32;64.45;;;38.63;;
82806;SDS011;72563;44.816;20.484;2023-12-20T11:10:04;60.08;;;37.45;;
82806;SDS011;72563;44.816;20.484;2023-12-20T11:12:44;60.35;;;36.15;;
82806;SDS011;72563;44.816;20.484;2023-12-20T11:15:15;63.72;;;35.97;;
82806;SDS011;72563;44.816;20.484;2023-12-20T11:17:44;63.58;;;36.88;;
82806;SDS011;72563;44.816;20.484;2023-12-20T11:20:11;62.83;;;36.13;;
82806;SDS011;72563;44.816;20.484;2023-12-20T11:22:38;66.13;;;36.97;;
82806;SDS011;72563;44.816;20.484;2023-12-20T11:25:16;63.45;;;38.35;;
82806;SDS011;72563;44.816;20.484;2023-12-20T11:27:42;61.67;;;37.45;;
82806;SDS011;72563;44.816;20.484;2023-12-20T11:30:08;72.75;;;39.88;;
82806;SDS011;72563;44.816;20.484;2023-12-20T11:32:35;74.07;;;38.40;;
82806;SDS011;72563;44.816;20.484;2023-12-20T11:35:16;75.72;;;41.28;;
82806;SDS011;72563;44.816;20.484;2023-12-20T11:37:44;65.88;;;37.83;;
82806;SDS011;72563;44.816;20.484;2023-12-20T11:40:13;67.88;;;38.72;;
82806;SDS011;72563;44.816;20.484;2023-12-20T11:42:40;68.13;;;40.22;;
82806;SDS011;72563;44.816;20.484;2023-12-20T11:45:11;60.58;;;37.65;;
82806;SDS011;72563;44.816;20.484;2023-12-20T11:47:40;62.63;;;36.95;;
82806;SDS011;72563;44.816;20.484;2023-12-20T11:50:07;58.70;;;35.35;;
82806;SDS011;72563;44.816;20.484;2023-12-20T11:52:32;58.75;;;35.08;;
82806;SDS011;72563;44.816;20.484;2023-12-20T11:54:58;59.25;;;35.78;;
82806;SDS011;72563;44.816;20.484;2023-12-20T11:57:24;57.15;;;36.75;;
82806;SDS011;72563;44.816;20.484;2023-12-20T11:59:50;61.03;;;35.58;;
82806;SDS011;72563;44.816;20.484;2023-12-20T12:02:16;56.45;;;36.03;;
82806;SDS011;72563;44.816;20.484;2023-12-20T12:04:42;62.90;;;35.55;;
82806;SDS011;72563;44.816;20.484;2023-12-20T12:07:07;59.72;;;36.00;;
82806;SDS011;72563;44.816;20.484;2023-12-20T12:09:33;62.88;;;37.92;;
82806;SDS011;72563;44.816;20.484;2023-12-20T12:11:59;65.07;;;37.95;;
82806;SDS011;72563;44.816;20.484;2023-12-20T12:14:25;62.38;;;36.60;;
82806;SDS011;72563;44.816;20.484;2023-12-20T12:16:50;64.53;;;40.13;;
82806;SDS011;72563;44.816;20.484;2023-12-20T12:19:21;67.63;;;40.58;;
82806;SDS011;72563;44.816;20.484;2023-12-20T12:21:49;68.63;;;41.95;;
82806;SDS011;72563;44.816;20.484;2023-12-20T12:24:15;68.43;;;41.70;;
82806;SDS011;72563;44.816;20.484;2023-12-20T12:26:49;66.07;;;40.50;;
82806;SDS011;72563;44.816;20.484;2023-12-20T12:29:16;68.15;;;40.00;;
82806;SDS011;72563;44.816;20.484;2023-12-20T12:31:41;68.30;;;40.30;;
82806;SDS011;72563;44.816;20.484;2023-12-20T12:34:08;65.00;;;39.40;;
82806;SDS011;72563;44.816;20.484;2023-12-20T12:36:34;65.57;;;41.83;;
82806;SDS011;72563;44.816;20.484;2023-12-20T12:39:02;62.75;;;36.97;;
82806;SDS011;72563;44.816;20.484;2023-12-20T12:41:30;65.32;;;39.58;;
82806;SDS011;72563;44.816;20.484;2023-12-20T12:43:55;73.38;;;42.30;;
82806;SDS011;72563;44.816;20.484;2023-12-20T12:46:21;72.10;;;42.00;;
82806;SDS011;72563;44.816;20.484;2023-12-20T12:48:46;78.75;;;42.22;;
82806;SDS011;72563;44.816;20.484;2023-12-20T12:51:12;80.88;;;44.03;;
82806;SDS011;72563;44.816;20.484;2023-12-20T12:53:39;73.88;;;42.42;;
82806;SDS011;72563;44.816;20.484;2023-12-20T12:56:05;70.60;;;40.95;;
82806;SDS011;72563;44.816;20.484;2023-12-20T12:58:31;88.20;;;48.25;;
82806;SDS011;72563;44.816;20.484;2023-12-20T13:00:57;94.57;;;49.83;;
82806;SDS011;72563;44.816;20.484;2023-12-20T13:03:23;78.88;;;46.42;;
82806;SDS011;72563;44.816;20.484;2023-12-20T13:05:49;78.38;;;44.42;;
82806;SDS011;72563;44.816;20.484;2023-12-20T13:08:15;65.32;;;40.15;;
82806;SDS011;72563;44.816;20.484;2023-12-20T13:10:41;73.07;;;42.50;;
82806;SDS011;72563;44.816;20.484;2023-12-20T13:13:06;72.35;;;41.42;;
82806;SDS011;72563;44.816;20.484;2023-12-20T13:15:32;81.13;;;42.90;;
82806;SDS011;72563;44.816;20.484;2023-12-20T13:17:58;73.40;;;43.97;;
82806;SDS011;72563;44.816;20.484;2023-12-20T13:20:23;79.88;;;46.65;;
82806;SDS011;72563;44.816;20.484;2023-12-20T13:22:49;75.85;;;44.75;;
82806;SDS011;72563;44.816;20.484;2023-12-20T13:25:14;74.57;;;44.60;;
82806;SDS011;72563;44.816;20.484;2023-12-20T13:27:40;78.18;;;45.97;;
82806;SDS011;72563;44.816;20.484;2023-12-20T13:30:06;72.47;;;43.58;;
82806;SDS011;72563;44.816;20.484;2023-12-20T13:32:32;74.88;;;45.63;;
82806;SDS011;72563;44.816;20.484;2023-12-20T13:34:58;71.07;;;43.85;;
82806;SDS011;72563;44.816;20.484;2023-12-20T13:37:23;73.13;;;44.90;;
82806;SDS011;72563;44.816;20.484;2023-12-20T13:39:49;19.08;;;11.52;;
82806;SDS011;72563;44.816;20.484;2023-12-20T13:42:14;18.77;;;10.95;;
82806;SDS011;72563;44.816;20.484;2023-12-20T13:44:40;24.65;;;16.50;;
82806;SDS011;72563;44.816;20.484;2023-12-20T13:47:05;28.92;;;20.92;;
82806;SDS011;72563;44.816;20.484;2023-12-20T13:49:31;60.65;;;43.78;;
82806;SDS011;72563;44.816;20.484;2023-12-20T13:51:57;59.00;;;42.85;;
82806;SDS011;72563;44.816;20.484;2023-12-20T13:54:23;64.95;;;44.67;;
82806;SDS011;72563;44.816;20.484;2023-12-20T13:56:49;62.45;;;44.80;;
82806;SDS011;72563;44.816;20.484;2023-12-20T13:59:15;64.30;;;42.95;;
82806;SDS011;72563;44.816;20.484;2023-12-20T14:01:41;63.63;;;41.45;;
82806;SDS011;72563;44.816;20.484;2023-12-20T14:04:06;65.93;;;41.20;;
82806;SDS011;72563;44.816;20.484;2023-12-20T14:06:32;67.32;;;43.30;;
82806;SDS011;72563;44.816;20.484;2023-12-20T14:08:58;67.00;;;38.20;;